Arcata, CA

7:52 AM PDT on April 25, 2015 (GMT -0700)
MAP | | Change Station
CLOSE
Current Station
Personal Weather Station
Location: McKinleyville, CA
Elevation: 68 ft
Nearby Weather Stations

Elev 68 ft 40.88 °N, 124.07 °W | Updated 52 minutes ago

Overcast
Overcast
46 °F
Feels Like 46 °F
N
2
Wind Variable Wind from ESE
Gusts 0.0 mph

Today
High -- | Low -- °F
--% Chance of Precip.
Yesterday
High -- | Low -- °F
Precip. -- in
6:22 AM 8:06 PM
Waxing Crescent, 46% visible
Pressure 30.01 in
Visibility 10.0 miles
Clouds Mostly Cloudy 2000 ft
Mostly Cloudy 2500 ft
Windchill 46 °F
Dew Point 44 °F
Humidity 93%
Rainfall in
Snow Depth Not available.
UV 0 out of 12
Pollen 8.30 out of 12
Air Quality Not available.
Flu Activity Sporadic
METAR KACV 251353Z AUTO 05003KT 10SM BKN020 BKN025 08/07 A2999 RMK AO2 SLP160 T00780072

More Conditions Fewer Conditions

Pressure 30.01 in
Visibility 10.0 miles
Clouds Mostly Cloudy 2000 ft
Mostly Cloudy 2500 ft
Windchill 46 °F
Dew Point 44 °F
Humidity 93%
Rainfall in
Snow Depth Not available.
UV 0 out of 12
Pollen 8.30 out of 12
Air Quality Not available.
Flu Activity Sporadic
METAR KACV 251353Z AUTO 05003KT 10SM BKN020 BKN025 08/07 A2999 RMK AO2 SLP160 T00780072

More Conditions Fewer Conditions

10-Day Weather Forecast

Almanac

Astronomy

Apr. 25, 2015 Rise Set
Actual Time
Civil Twilight
Nautical Twilight
Astronomical Twilight
Moon
Length of Visible Light
Length of Day
Tomorrow will be .
, % of the Moon is Illuminated

Today's Extremes

State Highs State Lows

Community

WunderPhotos

Upload Photos

1,816,691 photos uploaded!

WunderBlogs® & News

Nearby

Air Quality

  Air Quality AQ Index Pollutant
Not available.

Snow Depth

Station Depth Elevation

Earthquake Activity

City Distance Mag. Time & Date
Minimum magnitude displayed is 2.5.

Coastal Water Temperatures

Place Temperature

Stations

Nearby Weather Stations

Station Location Temp. Windchill Dew Point Humidity Wind Precip. Elev Updated Type